There is a communication problem. Go directly to the Meteoalarm site : www.meteoalarm.eu and check the Weather-warnings there .


Webcam  Webcam


Lyn radar more information blitzortung!


Regn radar more information rain snow radar



Lokal METAR Rapport

   
EHVK - Volkel Rnlafb, Netherlands
Afstand fra station: SV 18 km
Opdateret: 05-02-2023 12:13
mest skyet  
mest skyet  
   Vind: Nord 7.2 m/s<br />Gust to 7.2 m/s
Vind: Nord 7.2 m/s
Gust to 7.2 m/s
Temperatur: 8°C
Kuldeindeks: 4°C
Dugpunkt: 3°C
Luftfugtighed: 71%
Barometer: 1038 hPa
Skyet: mest skyet
Sigtbarhed: mere end 10 km
Sky detaljer: Let Skyet 2200 ft,
mest skyet 2500 ft,
mest skyet 2900 ft
EHVK 051113Z AUTO 35014G24KT 310V020 9999 FEW022 BKN025 BKN029 08/03 Q1038 BLU
EDLV - Niederrhein, Germany
Afstand fra station: SØ 25 km
Opdateret: 05-02-2023 12:20
Overskyet  
Overskyet  
   Vind: NV 6.2 m/s
Vind: NV 6.2 m/s
Temperatur: 8°C
Kuldeindeks: 4°C
Dugpunkt: 3°C
Luftfugtighed: 71%
Barometer: 1037 hPa
Skyet: Overskyet
Sigtbarhed: mere end 10 km
Sky detaljer: Let Skyet 2200 ft,
Overskyet 2600 ft
EDLV 051120Z 32012KT 300V360 9999 FEW022 OVC026 08/03 Q1037
EHDL - Deelen Rnlafb, Netherlands
Afstand fra station: N 35 km
Opdateret: 05-02-2023 11:55
mest skyet  
mest skyet  
   Vind: NNV 7.2 m/s
Vind: NNV 7.2 m/s
Temperatur: 7°C
Kuldeindeks: 3°C
Dugpunkt: 4°C
Luftfugtighed: 81%
Barometer: 1037 hPa
Skyet: mest skyet
Sigtbarhed: mere end 10 km
Sky detaljer: Let Skyet 1600 ft,
Delvis skyet 1900 ft,
mest skyet 2300 ft
EHDL 051055Z AUTO 34014KT 290V030 9999 FEW016 SCT019 BKN023 07/04 Q1037 WHT
EHEH - Eindhoven Rnlafb, Netherlands
Afstand fra station: SV 48 km
Opdateret: 05-02-2023 11:59
Overskyet  
Overskyet  
   Vind: NNV 7.2 m/s
Vind: NNV 7.2 m/s
Temperatur: 8°C
Kuldeindeks: 4°C
Dugpunkt: 4°C
Luftfugtighed: 76%
Barometer: 1039 hPa
Skyet: Overskyet
Sigtbarhed: mere end 10 km
Sky detaljer: mest skyet 2200 ft,
Overskyet 2500 ft
EHEH 051059Z AUTO 34014KT 300V020 9999 BKN022 OVC025 08/04 Q1039 WHT BECMG SCT022
EHGR - Gilze-Rijen Rnla, Netherlands
Afstand fra station: VSV 70 km
Opdateret: 05-02-2023 12:12
Overskyet  
Overskyet  
   Vind: NNV 6.7 m/s
Vind: NNV 6.7 m/s
Temperatur: 8°C
Kuldeindeks: 4°C
Dugpunkt: 3°C
Luftfugtighed: 71%
Barometer: 1040 hPa
Skyet: Overskyet
Sigtbarhed: mere end 10 km
Sky detaljer: Delvis skyet 2300 ft,
mest skyet 2700 ft,
Overskyet 3200 ft
EHGR 051112Z AUTO 34013KT 290V040 9999 SCT023 BKN027 OVC032 08/03 Q1040 WHT
EBBL - Kleine-Brogel(Ba, Belgium
Afstand fra station: SSV 71 km
Opdateret: 05-02-2023 11:55
Overskyet  
Overskyet  
   Vind: varierer Stille
Vind: varierer Stille
Temperatur: 7°C
Dugpunkt: 3°C
Luftfugtighed: 76%
Barometer: 1038 hPa
Skyet: Overskyet
Sigtbarhed: mere end 10 km
Sky detaljer: Overskyet 2000 ft
EBBL 051055Z AUTO //////KT 9999 OVC020/// 07/03 Q1038 WHT

Script udviklet af  Saratoga-weather.org Tilpasset til denne template af  Weerstation Leuven

Du finder også vores vejrinformationer på:

UK Metoffice

European Weather Network

WeatherCloud

Weather Underground

AWEKAS

Citizen Weather Observer Program (CWOP)

HAMweather, WeatherForYou, PWS Weather

Udstyr som vi anvender:

Vejrstation
Davis VP2

Vejrprogram
Meteobridge

Vejrserver
Meteobridge Pro

Davis VP2

Meteobridge

Meteobridge Pro